Time;durP1;ratioP1;P1;durP2;ratioP2;P2;SDS_P1;SDS_P2;PMS_P1;PMS_P2;Temp;Humidity;BMP_temperature;BMP_pressure;BME280_temperature;BME280_humidity;BME280_pressure;Samples;Min_cycle;Max_cycle;Signal;HPM_P1;HPM_P2
2024/01/29 00:01:16;;;;;;;7.85;4.68;;;;;;;;;;5103343;27;20114;-63
2024/01/29 00:03:44;;;;;;;8.27;5.07;;;;;;;;;;5102247;27;20423;-62
2024/01/29 00:06:11;;;;;;;8.35;4.68;;;;;;;;;;5104149;27;20097;-63
2024/01/29 00:08:38;;;;;;;8.63;5.35;;;;;;;;;;5103393;28;20058;-62
2024/01/29 00:11:05;;;;;;;7.07;5.05;;;;;;;;;;5102294;27;20055;-63
2024/01/29 00:13:31;;;;;;;8.82;5.15;;;;;;;;;;5103010;27;20305;-62
2024/01/29 00:15:58;;;;;;;10.18;4.78;;;;;;;;;;5102317;27;20063;-63
2024/01/29 00:18:25;;;;;;;7.18;5.15;;;;;;;;;;5103100;27;20044;-62
2024/01/29 00:20:51;;;;;;;10.55;5.22;;;;;;;;;;5102288;27;20056;-62
2024/01/29 00:23:18;;;;;;;5.70;4.10;;;;;;;;;;5103309;27;20126;-63
2024/01/29 00:25:46;;;;;;;7.47;5.03;;;;;;;;;;5102418;27;20133;-63
2024/01/29 00:28:12;;;;;;;6.75;4.93;;;;;;;;;;5103318;27;20055;-62
2024/01/29 00:30:39;;;;;;;8.40;5.05;;;;;;;;;;5101835;27;20127;-60
2024/01/29 00:33:05;;;;;;;7.43;5.35;;;;;;;;;;5101926;27;20048;-62
2024/01/29 00:35:32;;;;;;;9.10;5.15;;;;;;;;;;5102674;27;20071;-62
2024/01/29 00:37:58;;;;;;;9.07;4.90;;;;;;;;;;5102218;27;20583;-62
2024/01/29 00:40:25;;;;;;;8.23;5.38;;;;;;;;;;5102719;27;20579;-63
2024/01/29 00:42:51;;;;;;;6.85;5.40;;;;;;;;;;5102443;27;20127;-62
2024/01/29 00:45:18;;;;;;;7.55;5.50;;;;;;;;;;5102682;27;20102;-63
2024/01/29 00:47:44;;;;;;;10.98;5.50;;;;;;;;;;5101313;27;20106;-62
2024/01/29 00:50:11;;;;;;;8.15;5.53;;;;;;;;;;5103108;27;20063;-62
2024/01/29 00:52:38;;;;;;;8.25;5.57;;;;;;;;;;5102449;27;20076;-63
2024/01/29 00:55:04;;;;;;;8.15;4.95;;;;;;;;;;5100972;28;20209;-63
2024/01/29 00:57:31;;;;;;;8.55;5.57;;;;;;;;;;5102546;27;20063;-61
2024/01/29 00:59:58;;;;;;;8.88;5.13;;;;;;;;;;5101646;28;20060;-63
2024/01/29 01:02:25;;;;;;;10.98;5.32;;;;;;;;;;5101974;27;20044;-62
2024/01/29 01:04:51;;;;;;;6.95;5.20;;;;;;;;;;5102509;27;20055;-63
2024/01/29 01:07:18;;;;;;;8.95;5.65;;;;;;;;;;5101811;27;20048;-62
2024/01/29 01:09:45;;;;;;;8.25;5.07;;;;;;;;;;5101792;27;20059;-62
2024/01/29 01:12:11;;;;;;;6.60;5.22;;;;;;;;;;5102824;27;20096;-63
2024/01/29 01:14:38;;;;;;;7.97;4.97;;;;;;;;;;5101667;27;20063;-63
2024/01/29 01:17:04;;;;;;;9.85;5.50;;;;;;;;;;5101132;27;20080;-62
2024/01/29 01:19:31;;;;;;;8.10;5.10;;;;;;;;;;5101737;27;20056;-63
2024/01/29 01:21:57;;;;;;;8.73;5.65;;;;;;;;;;5102699;27;20135;-63
2024/01/29 01:24:24;;;;;;;10.43;5.60;;;;;;;;;;5101671;27;20050;-63
2024/01/29 01:26:50;;;;;;;8.93;5.60;;;;;;;;;;5101229;27;20082;-63
2024/01/29 01:29:18;;;;;;;5.65;4.30;;;;;;;;;;5101348;27;20064;-63
2024/01/29 01:31:44;;;;;;;8.63;5.22;;;;;;;;;;5102052;27;20578;-62
2024/01/29 01:34:10;;;;;;;8.07;5.45;;;;;;;;;;5101974;27;20142;-63
2024/01/29 01:36:37;;;;;;;9.85;5.25;;;;;;;;;;5102111;27;20052;-62
2024/01/29 01:39:04;;;;;;;8.95;5.95;;;;;;;;;;5100697;27;20056;-63
2024/01/29 01:41:30;;;;;;;8.38;5.18;;;;;;;;;;5103185;27;20063;-63
2024/01/29 01:43:57;;;;;;;6.85;5.45;;;;;;;;;;5104455;27;20137;-63
2024/01/29 01:46:23;;;;;;;10.48;5.95;;;;;;;;;;5105355;27;20047;-60
2024/01/29 01:48:51;;;;;;;9.75;5.82;;;;;;;;;;5105259;27;20630;-63
2024/01/29 01:51:19;;;;;;;10.25;5.80;;;;;;;;;;5103602;28;20510;-63
2024/01/29 01:53:45;;;;;;;6.97;5.50;;;;;;;;;;5106111;27;20106;-63
2024/01/29 01:56:13;;;;;;;7.13;5.47;;;;;;;;;;5104817;28;20043;-62
2024/01/29 01:58:41;;;;;;;7.65;5.70;;;;;;;;;;5104429;27;20063;-63
2024/01/29 02:01:08;;;;;;;9.38;6.03;;;;;;;;;;5105267;27;20530;-62
2024/01/29 02:03:35;;;;;;;8.50;5.68;;;;;;;;;;5105736;27;20052;-63
2024/01/29 02:06:01;;;;;;;8.05;5.60;;;;;;;;;;5105465;27;20575;-63
2024/01/29 02:08:28;;;;;;;9.73;5.70;;;;;;;;;;5106382;27;20507;-62
2024/01/29 02:10:57;;;;;;;7.93;5.47;;;;;;;;;;5104272;27;20106;-62
2024/01/29 02:13:23;;;;;;;9.75;5.90;;;;;;;;;;5105139;27;20556;-61
2024/01/29 02:15:50;;;;;;;7.68;5.93;;;;;;;;;;5105369;27;20060;-63
2024/01/29 02:18:16;;;;;;;9.75;5.78;;;;;;;;;;5105191;27;20056;-62
2024/01/29 02:20:43;;;;;;;8.05;5.38;;;;;;;;;;5104495;27;20440;-62
2024/01/29 02:23:09;;;;;;;9.07;5.68;;;;;;;;;;5105184;27;20052;-63
2024/01/29 02:25:36;;;;;;;8.95;5.80;;;;;;;;;;5105804;27;20064;-63
2024/01/29 02:28:02;;;;;;;8.50;6.32;;;;;;;;;;5101651;28;20055;-62
2024/01/29 02:30:29;;;;;;;8.98;6.03;;;;;;;;;;5104859;27;20051;-62
2024/01/29 02:32:55;;;;;;;8.18;5.80;;;;;;;;;;5103987;27;20052;-63
2024/01/29 02:35:22;;;;;;;8.35;5.85;;;;;;;;;;5105508;27;20056;-63
2024/01/29 02:37:49;;;;;;;10.02;5.78;;;;;;;;;;5105157;27;20189;-63
2024/01/29 02:40:16;;;;;;;8.95;5.80;;;;;;;;;;5104837;27;20078;-62
2024/01/29 02:42:42;;;;;;;9.85;6.15;;;;;;;;;;5104900;27;20535;-61
2024/01/29 02:45:09;;;;;;;12.13;6.53;;;;;;;;;;5106011;27;20147;-60
2024/01/29 02:47:35;;;;;;;11.27;5.82;;;;;;;;;;5105672;27;20056;-63
2024/01/29 02:50:02;;;;;;;10.10;5.95;;;;;;;;;;5103926;27;20095;-63
2024/01/29 02:52:28;;;;;;;9.77;6.18;;;;;;;;;;5104254;27;20064;-62
2024/01/29 02:54:55;;;;;;;8.15;5.38;;;;;;;;;;5104058;27;20575;-63
2024/01/29 02:57:23;;;;;;;10.90;6.05;;;;;;;;;;5104804;27;20079;-63
2024/01/29 02:59:51;;;;;;;9.70;6.55;;;;;;;;;;5104137;27;20064;-63
2024/01/29 03:02:17;;;;;;;12.25;6.70;;;;;;;;;;5103226;27;20506;-63
2024/01/29 03:04:44;;;;;;;8.25;6.07;;;;;;;;;;5103648;27;20091;-62
2024/01/29 03:07:11;;;;;;;8.70;6.13;;;;;;;;;;5104734;27;20095;-63
2024/01/29 03:09:37;;;;;;;13.30;7.32;;;;;;;;;;5103524;27;20063;-61
2024/01/29 03:12:03;;;;;;;12.07;6.40;;;;;;;;;;5102981;27;20059;-63
2024/01/29 03:14:30;;;;;;;10.35;5.93;;;;;;;;;;5103911;28;20086;-62
2024/01/29 03:16:57;;;;;;;10.55;6.60;;;;;;;;;;5103353;27;20044;-62
2024/01/29 03:19:23;;;;;;;9.63;6.05;;;;;;;;;;5104812;27;20063;-60
2024/01/29 03:21:50;;;;;;;12.55;6.05;;;;;;;;;;5103832;27;20079;-62
2024/01/29 03:24:16;;;;;;;9.02;6.03;;;;;;;;;;5103522;27;20097;-62
2024/01/29 03:26:43;;;;;;;10.90;5.93;;;;;;;;;;5103096;28;20588;-61
2024/01/29 03:29:09;;;;;;;8.65;6.53;;;;;;;;;;5104453;27;20055;-62
2024/01/29 03:31:35;;;;;;;14.55;7.20;;;;;;;;;;5103136;27;20131;-63
2024/01/29 03:34:02;;;;;;;11.25;6.38;;;;;;;;;;5103550;27;20056;-62
2024/01/29 03:36:28;;;;;;;8.85;6.97;;;;;;;;;;5103169;27;20132;-62
2024/01/29 03:38:54;;;;;;;8.52;6.22;;;;;;;;;;5104186;27;21092;-62
2024/01/29 03:41:21;;;;;;;13.23;6.30;;;;;;;;;;5103533;27;20144;-63
2024/01/29 03:43:47;;;;;;;11.13;6.22;;;;;;;;;;5103494;27;20500;-64
2024/01/29 03:46:13;;;;;;;8.85;6.28;;;;;;;;;;5103232;27;20052;-62
2024/01/29 03:48:40;;;;;;;7.97;6.30;;;;;;;;;;5103790;27;20056;-63
2024/01/29 03:51:06;;;;;;;11.15;7.47;;;;;;;;;;5103044;28;20094;-62
2024/01/29 03:53:33;;;;;;;10.60;6.97;;;;;;;;;;5103340;27;20059;-63
2024/01/29 03:55:59;;;;;;;8.20;6.18;;;;;;;;;;5102353;27;20076;-63
2024/01/29 03:58:26;;;;;;;8.57;6.28;;;;;;;;;;5102934;27;20059;-63
2024/01/29 04:00:53;;;;;;;9.90;6.70;;;;;;;;;;5102781;27;20057;-62
2024/01/29 04:03:20;;;;;;;9.63;6.38;;;;;;;;;;5103782;28;20046;-62
2024/01/29 04:05:47;;;;;;;9.18;6.28;;;;;;;;;;5102164;27;20151;-62
2024/01/29 04:08:13;;;;;;;9.80;6.18;;;;;;;;;;5102938;28;20052;-61
2024/01/29 04:10:39;;;;;;;11.10;6.57;;;;;;;;;;5103529;27;20151;-62
2024/01/29 04:13:06;;;;;;;11.50;5.68;;;;;;;;;;5102948;27;20498;-62
2024/01/29 04:15:32;;;;;;;7.03;5.60;;;;;;;;;;5103058;27;20890;-62
2024/01/29 04:17:59;;;;;;;10.98;6.95;;;;;;;;;;5102442;27;20311;-63
2024/01/29 04:20:25;;;;;;;9.25;6.80;;;;;;;;;;5103366;27;20170;-63
2024/01/29 04:22:51;;;;;;;9.13;6.25;;;;;;;;;;5102760;27;20054;-63
2024/01/29 04:25:18;;;;;;;9.07;7.07;;;;;;;;;;5102770;27;20048;-63
2024/01/29 04:27:46;;;;;;;10.40;6.47;;;;;;;;;;5102235;27;20048;-63
2024/01/29 04:30:13;;;;;;;9.63;6.57;;;;;;;;;;5102141;27;20091;-61
2024/01/29 04:32:39;;;;;;;11.10;6.53;;;;;;;;;;5103232;27;20611;-62
2024/01/29 04:35:06;;;;;;;8.82;6.00;;;;;;;;;;5102491;27;20059;-61
2024/01/29 04:37:33;;;;;;;9.13;6.00;;;;;;;;;;5102385;27;20128;-62
2024/01/29 04:40:00;;;;;;;11.38;6.25;;;;;;;;;;5101590;27;20044;-64
2024/01/29 04:42:26;;;;;;;11.02;6.55;;;;;;;;;;5103443;27;20518;-62
2024/01/29 04:44:52;;;;;;;9.98;6.28;;;;;;;;;;5102650;27;20051;-63
2024/01/29 04:47:19;;;;;;;9.88;6.40;;;;;;;;;;5103022;27;20052;-63
2024/01/29 04:49:46;;;;;;;8.95;6.47;;;;;;;;;;5101710;27;20093;-63
2024/01/29 04:52:13;;;;;;;9.48;6.93;;;;;;;;;;5103108;27;20949;-62
2024/01/29 04:54:39;;;;;;;10.43;6.00;;;;;;;;;;5102217;27;20056;-61
2024/01/29 04:57:05;;;;;;;11.98;6.78;;;;;;;;;;5102713;27;20562;-63
2024/01/29 04:59:32;;;;;;;12.40;6.30;;;;;;;;;;5101937;27;20149;-62
2024/01/29 05:01:58;;;;;;;8.77;6.05;;;;;;;;;;5101409;27;20225;-61
2024/01/29 05:04:25;;;;;;;9.27;6.43;;;;;;;;;;5102673;27;20097;-63
2024/01/29 05:06:51;;;;;;;9.60;6.53;;;;;;;;;;5102422;27;20518;-62
2024/01/29 05:09:19;;;;;;;8.23;5.90;;;;;;;;;;5102460;28;20110;-62
2024/01/29 05:11:45;;;;;;;10.82;6.18;;;;;;;;;;5101653;27;20525;-62
2024/01/29 05:14:11;;;;;;;10.13;6.70;;;;;;;;;;5103094;27;20054;-63
2024/01/29 05:16:38;;;;;;;13.57;6.88;;;;;;;;;;5103090;27;20056;-63
2024/01/29 05:19:04;;;;;;;8.18;6.18;;;;;;;;;;5105664;27;20065;-62
2024/01/29 05:21:31;;;;;;;10.25;6.28;;;;;;;;;;5106164;27;20052;-59
2024/01/29 05:23:57;;;;;;;9.15;6.82;;;;;;;;;;5105559;27;20055;-63
2024/01/29 05:26:24;;;;;;;9.50;6.35;;;;;;;;;;5104569;28;20873;-63
2024/01/29 05:28:50;;;;;;;9.95;6.10;;;;;;;;;;5106263;27;20485;-63
2024/01/29 05:31:16;;;;;;;8.75;6.20;;;;;;;;;;5103463;27;20059;-62
2024/01/29 05:33:43;;;;;;;7.55;5.85;;;;;;;;;;5104577;27;20052;-61
2024/01/29 05:36:09;;;;;;;9.07;5.93;;;;;;;;;;5106168;27;20482;-63
2024/01/29 05:38:36;;;;;;;9.85;6.88;;;;;;;;;;5104979;27;20114;-63
2024/01/29 05:41:02;;;;;;;11.05;6.45;;;;;;;;;;5105308;27;20048;-62
2024/01/29 05:43:29;;;;;;;12.38;6.90;;;;;;;;;;5105257;28;20129;-62
2024/01/29 05:45:55;;;;;;;11.45;6.38;;;;;;;;;;5105982;27;20055;-62
2024/01/29 05:48:22;;;;;;;9.63;6.18;;;;;;;;;;5105357;27;20525;-62
2024/01/29 05:50:48;;;;;;;9.70;6.85;;;;;;;;;;5104450;27;20052;-63
2024/01/29 05:53:20;;;;;;;12.30;6.80;;;;;;;;;;5104190;27;20047;-62
2024/01/29 05:55:46;;;;;;;11.85;6.63;;;;;;;;;;5105218;27;20052;-62
2024/01/29 05:58:14;;;;;;;9.80;7.45;;;;;;;;;;5105389;27;20214;-60
2024/01/29 06:00:41;;;;;;;12.02;6.65;;;;;;;;;;5100420;27;20048;-62
2024/01/29 06:03:07;;;;;;;11.80;7.38;;;;;;;;;;5100965;27;20426;-62
2024/01/29 06:05:33;;;;;;;11.25;7.03;;;;;;;;;;5103566;28;20526;-63
2024/01/29 06:08:00;;;;;;;9.32;6.13;;;;;;;;;;5105596;27;20053;-62
2024/01/29 06:10:27;;;;;;;10.00;6.55;;;;;;;;;;5105124;27;20059;-62
2024/01/29 06:12:53;;;;;;;10.30;6.88;;;;;;;;;;5098975;28;20110;-62
2024/01/29 06:15:20;;;;;;;10.68;6.53;;;;;;;;;;5104350;27;20056;-62
2024/01/29 06:17:46;;;;;;;8.43;6.35;;;;;;;;;;5104025;27;20499;-62
2024/01/29 06:20:13;;;;;;;10.02;6.63;;;;;;;;;;5103712;27;20055;-61
2024/01/29 06:22:44;;;;;;;9.88;6.57;;;;;;;;;;5104944;27;20095;-62
2024/01/29 06:25:11;;;;;;;7.78;5.75;;;;;;;;;;5105478;27;20146;-62
2024/01/29 06:27:38;;;;;;;9.35;6.63;;;;;;;;;;5105144;27;20051;-62
2024/01/29 06:30:05;;;;;;;11.68;7.15;;;;;;;;;;5094003;27;20083;-63
2024/01/29 06:32:32;;;;;;;9.10;6.53;;;;;;;;;;5104337;28;20074;-60
2024/01/29 06:34:58;;;;;;;10.50;7.30;;;;;;;;;;5104472;27;20044;-62
2024/01/29 06:37:25;;;;;;;9.52;6.10;;;;;;;;;;5104713;27;20174;-63
2024/01/29 06:39:51;;;;;;;10.63;6.72;;;;;;;;;;5105268;27;20052;-64
2024/01/29 06:42:18;;;;;;;9.52;6.35;;;;;;;;;;5104725;27;20059;-63
2024/01/29 06:44:44;;;;;;;10.00;6.60;;;;;;;;;;5094750;27;20063;-62
2024/01/29 06:47:11;;;;;;;8.80;6.88;;;;;;;;;;5088496;28;20095;-62
2024/01/29 06:49:38;;;;;;;8.98;6.45;;;;;;;;;;5101310;28;20060;-62
2024/01/29 06:52:04;;;;;;;9.63;6.80;;;;;;;;;;5097304;27;20051;-61
2024/01/29 06:54:37;;;;;;;8.45;6.20;;;;;;;;;;5111352;27;20055;-61
2024/01/29 06:57:03;;;;;;;9.80;6.85;;;;;;;;;;5104142;27;20051;-62
2024/01/29 06:59:30;;;;;;;14.25;6.97;;;;;;;;;;5113447;27;20059;-61
2024/01/29 07:01:59;;;;;;;11.10;6.85;;;;;;;;;;5103369;27;20899;-60
2024/01/29 07:04:26;;;;;;;9.88;7.03;;;;;;;;;;5107486;27;20056;-62
2024/01/29 07:06:52;;;;;;;10.20;6.50;;;;;;;;;;5102832;27;20055;-61
2024/01/29 07:09:19;;;;;;;9.38;6.63;;;;;;;;;;5103965;27;20055;-61
2024/01/29 07:11:45;;;;;;;9.43;6.22;;;;;;;;;;5110896;27;20059;-62
2024/01/29 07:14:11;;;;;;;8.93;6.45;;;;;;;;;;5107267;27;20072;-62
2024/01/29 07:16:38;;;;;;;13.95;6.60;;;;;;;;;;5103277;27;20522;-62
2024/01/29 07:19:05;;;;;;;10.95;7.40;;;;;;;;;;5102540;27;20055;-62
2024/01/29 07:21:31;;;;;;;12.68;6.60;;;;;;;;;;5103862;27;20079;-61
2024/01/29 07:23:58;;;;;;;10.60;6.40;;;;;;;;;;5102926;27;20106;-61
2024/01/29 07:26:24;;;;;;;11.35;7.43;;;;;;;;;;5102734;27;20107;-61
2024/01/29 07:28:50;;;;;;;9.85;7.03;;;;;;;;;;5103129;27;20051;-62
2024/01/29 07:31:17;;;;;;;8.48;6.57;;;;;;;;;;5103049;27;20087;-61
2024/01/29 07:33:44;;;;;;;7.63;6.60;;;;;;;;;;5100136;27;20079;-61
2024/01/29 07:36:10;;;;;;;12.90;6.88;;;;;;;;;;5097457;27;20470;-62
2024/01/29 07:38:37;;;;;;;10.68;6.70;;;;;;;;;;5099543;27;20053;-61
2024/01/29 07:41:03;;;;;;;8.18;6.25;;;;;;;;;;5104267;27;20056;-61
2024/01/29 07:43:29;;;;;;;9.82;7.18;;;;;;;;;;5123458;27;20051;-62
2024/01/29 07:45:56;;;;;;;12.38;7.25;;;;;;;;;;5101182;27;20075;-62
2024/01/29 07:48:23;;;;;;;9.25;6.93;;;;;;;;;;5101505;27;20080;-61
2024/01/29 07:50:50;;;;;;;9.60;6.43;;;;;;;;;;5101603;27;20509;-61
2024/01/29 07:53:17;;;;;;;13.32;7.05;;;;;;;;;;5112755;27;20047;-62
2024/01/29 07:55:43;;;;;;;10.05;6.70;;;;;;;;;;5106808;27;20128;-61
2024/01/29 07:58:09;;;;;;;12.80;7.78;;;;;;;;;;5095494;27;20062;-62
2024/01/29 08:00:36;;;;;;;10.55;6.88;;;;;;;;;;5098495;27;20048;-62
2024/01/29 08:03:03;;;;;;;12.35;8.02;;;;;;;;;;5102379;27;20052;-62
2024/01/29 08:05:29;;;;;;;14.80;7.10;;;;;;;;;;5103155;27;20434;-62
2024/01/29 08:07:56;;;;;;;12.15;7.53;;;;;;;;;;5101181;27;20048;-60
2024/01/29 08:10:23;;;;;;;14.07;7.82;;;;;;;;;;5100445;27;20044;-61
2024/01/29 08:12:49;;;;;;;11.77;6.80;;;;;;;;;;5101087;27;20052;-61
2024/01/29 08:15:16;;;;;;;9.32;7.30;;;;;;;;;;5103619;27;20054;-62
2024/01/29 08:17:43;;;;;;;13.70;7.38;;;;;;;;;;5102309;27;20083;-62
2024/01/29 08:20:09;;;;;;;10.27;6.90;;;;;;;;;;5101226;27;20098;-62
2024/01/29 08:22:36;;;;;;;9.50;7.03;;;;;;;;;;5093315;27;20133;-63
2024/01/29 08:25:03;;;;;;;9.65;7.05;;;;;;;;;;5102884;27;20075;-63
2024/01/29 08:27:31;;;;;;;10.13;7.15;;;;;;;;;;5099255;27;20056;-63
2024/01/29 08:29:58;;;;;;;11.52;7.47;;;;;;;;;;5094490;28;20052;-60
2024/01/29 08:32:24;;;;;;;9.27;7.00;;;;;;;;;;5100011;27;20135;-61
2024/01/29 08:34:51;;;;;;;12.32;7.88;;;;;;;;;;5102511;28;20129;-60
2024/01/29 08:37:18;;;;;;;11.90;7.40;;;;;;;;;;5089901;27;20052;-63
2024/01/29 08:39:44;;;;;;;11.73;8.05;;;;;;;;;;5102055;27;20052;-63
2024/01/29 08:42:10;;;;;;;14.88;6.75;;;;;;;;;;5102001;27;20073;-62
2024/01/29 08:44:37;;;;;;;10.20;6.53;;;;;;;;;;5117119;27;20072;-62
2024/01/29 08:47:03;;;;;;;10.05;6.88;;;;;;;;;;5106280;27;20059;-62
2024/01/29 08:49:30;;;;;;;9.88;7.57;;;;;;;;;;5103911;27;20546;-62
2024/01/29 08:51:56;;;;;;;10.90;6.88;;;;;;;;;;5101186;27;20054;-62
2024/01/29 08:54:22;;;;;;;12.40;7.13;;;;;;;;;;5091242;27;20062;-61
2024/01/29 08:56:49;;;;;;;10.60;7.00;;;;;;;;;;5102598;27;20048;-62
2024/01/29 08:59:19;;;;;;;11.00;6.70;;;;;;;;;;5101635;27;20064;-62
2024/01/29 09:01:45;;;;;;;12.20;7.20;;;;;;;;;;5096452;27;20183;-62
2024/01/29 09:04:12;;;;;;;12.32;7.43;;;;;;;;;;5101646;27;20078;-63
2024/01/29 09:06:39;;;;;;;11.15;6.82;;;;;;;;;;5097761;27;20049;-62
2024/01/29 09:09:05;;;;;;;13.90;8.18;;;;;;;;;;5100169;27;20584;-58
2024/01/29 09:11:32;;;;;;;11.07;7.97;;;;;;;;;;5098121;28;20145;-60
2024/01/29 09:13:58;;;;;;;12.95;8.38;;;;;;;;;;5114081;27;20072;-63
2024/01/29 09:16:25;;;;;;;10.73;7.05;;;;;;;;;;5103969;27;20638;-61
2024/01/29 09:18:51;;;;;;;14.88;8.57;;;;;;;;;;5110465;27;20905;-63
2024/01/29 09:21:18;;;;;;;11.63;7.68;;;;;;;;;;5099528;28;20135;-62
2024/01/29 09:23:45;;;;;;;11.15;7.63;;;;;;;;;;5107173;27;20143;-63
2024/01/29 09:26:12;;;;;;;11.45;7.05;;;;;;;;;;5101978;27;20048;-62
2024/01/29 09:28:40;;;;;;;15.52;8.32;;;;;;;;;;5099407;27;20056;-62
2024/01/29 09:31:07;;;;;;;10.65;7.60;;;;;;;;;;5101224;27;20109;-62
2024/01/29 09:33:33;;;;;;;11.75;7.88;;;;;;;;;;5102941;27;20048;-62
2024/01/29 09:36:00;;;;;;;12.05;7.65;;;;;;;;;;5099422;27;20063;-62
2024/01/29 09:38:26;;;;;;;11.80;8.27;;;;;;;;;;5094392;27;20056;-61
2024/01/29 09:40:54;;;;;;;11.35;7.78;;;;;;;;;;5094625;28;20060;-61
2024/01/29 09:43:21;;;;;;;10.98;7.72;;;;;;;;;;5113580;27;20058;-63
2024/01/29 09:45:52;;;;;;;11.15;8.10;;;;;;;;;;5108034;27;20086;-63
2024/01/29 09:48:20;;;;;;;9.88;7.38;;;;;;;;;;5101017;27;20122;-61
2024/01/29 09:50:48;;;;;;;12.00;7.47;;;;;;;;;;5101586;27;20114;-62
2024/01/29 09:53:19;;;;;;;13.27;7.35;;;;;;;;;;5091413;27;20053;-62
2024/01/29 09:55:46;;;;;;;11.93;7.57;;;;;;;;;;5093391;28;20052;-62
2024/01/29 09:58:13;;;;;;;12.13;7.60;;;;;;;;;;5100945;27;20531;-62
2024/01/29 10:00:39;;;;;;;18.40;8.65;;;;;;;;;;5098724;27;20590;-62
2024/01/29 10:03:07;;;;;;;12.20;7.88;;;;;;;;;;5111231;27;20047;-63
2024/01/29 10:05:35;;;;;;;14.57;8.30;;;;;;;;;;5110629;27;20052;-63
2024/01/29 10:08:02;;;;;;;12.63;8.13;;;;;;;;;;5105454;27;20051;-60
2024/01/29 10:10:29;;;;;;;10.98;8.23;;;;;;;;;;5097817;27;20177;-61
2024/01/29 10:13:05;;;;;;;14.55;8.80;;;;;;;;;;5111131;27;20524;-62
2024/01/29 10:15:32;;;;;;;10.85;7.40;;;;;;;;;;5106281;27;20071;-62
2024/01/29 10:17:58;;;;;;;12.68;8.18;;;;;;;;;;5104268;27;20047;-62
2024/01/29 10:20:25;;;;;;;12.02;8.02;;;;;;;;;;5104058;27;20147;-63
2024/01/29 10:22:58;;;;;;;12.57;8.15;;;;;;;;;;5109725;27;20462;-62
2024/01/29 10:25:25;;;;;;;13.52;9.10;;;;;;;;;;5084567;28;20428;-63
2024/01/29 10:27:51;;;;;;;10.45;8.25;;;;;;;;;;5097373;27;20060;-62
2024/01/29 10:30:18;;;;;;;11.30;8.18;;;;;;;;;;5095596;27;20603;-62
2024/01/29 10:32:44;;;;;;;14.20;8.93;;;;;;;;;;5100254;27;20052;-62
2024/01/29 10:35:11;;;;;;;16.45;9.15;;;;;;;;;;5104596;27;20129;-63
2024/01/29 10:37:38;;;;;;;13.05;8.45;;;;;;;;;;5104277;27;20507;-59
2024/01/29 10:40:06;;;;;;;11.75;8.68;;;;;;;;;;5103896;27;20048;-61
2024/01/29 10:42:33;;;;;;;13.10;8.35;;;;;;;;;;5098179;27;20627;-62
2024/01/29 10:45:00;;;;;;;13.27;8.88;;;;;;;;;;5092370;27;20088;-62
2024/01/29 10:47:29;;;;;;;13.75;9.25;;;;;;;;;;5102334;27;20056;-62
2024/01/29 10:49:56;;;;;;;13.60;9.25;;;;;;;;;;5103524;27;20559;-62
2024/01/29 10:52:24;;;;;;;13.23;8.95;;;;;;;;;;5103613;27;20056;-61
2024/01/29 10:54:51;;;;;;;14.75;9.18;;;;;;;;;;5086738;28;20698;-62
2024/01/29 10:57:18;;;;;;;13.48;7.90;;;;;;;;;;5104532;27;20139;-63
2024/01/29 10:59:45;;;;;;;11.65;8.45;;;;;;;;;;5097868;27;20115;-62
2024/01/29 11:02:15;;;;;;;19.55;10.70;;;;;;;;;;5097109;28;20059;-63
2024/01/29 11:04:43;;;;;;;11.32;8.43;;;;;;;;;;5102858;27;20106;-62
2024/01/29 11:07:15;;;;;;;11.90;9.40;;;;;;;;;;5104102;27;20060;-62
2024/01/29 11:09:53;;;;;;;12.77;8.65;;;;;;;;;;5102386;27;20056;-60
2024/01/29 11:12:19;;;;;;;12.95;9.15;;;;;;;;;;5094186;28;21008;-62
2024/01/29 11:14:55;;;;;;;12.57;8.60;;;;;;;;;;5102511;27;20048;-62
2024/01/29 11:17:22;;;;;;;12.63;8.95;;;;;;;;;;5102067;27;20101;-62
2024/01/29 11:19:50;;;;;;;14.80;9.63;;;;;;;;;;5104205;27;20509;-62
2024/01/29 11:22:17;;;;;;;12.50;8.85;;;;;;;;;;5100851;27;20110;-62
2024/01/29 11:24:44;;;;;;;12.40;9.30;;;;;;;;;;5098476;27;20106;-62
2024/01/29 11:27:12;;;;;;;12.18;9.07;;;;;;;;;;5101624;27;20133;-63
2024/01/29 11:29:38;;;;;;;13.10;8.57;;;;;;;;;;5100781;27;20108;-63
2024/01/29 11:32:05;;;;;;;13.18;9.65;;;;;;;;;;5102906;27;20502;-63
2024/01/29 11:34:35;;;;;;;12.48;9.18;;;;;;;;;;5100802;27;20060;-63
2024/01/29 11:37:02;;;;;;;15.93;10.13;;;;;;;;;;5092331;27;20139;-63
2024/01/29 11:39:28;;;;;;;16.63;9.98;;;;;;;;;;5103218;27;20499;-63
2024/01/29 11:41:55;;;;;;;12.77;9.18;;;;;;;;;;5103136;27;20053;-63
2024/01/29 11:44:22;;;;;;;16.25;9.95;;;;;;;;;;5103764;27;20175;-62
2024/01/29 11:46:49;;;;;;;14.63;9.80;;;;;;;;;;5102745;27;20055;-63
2024/01/29 11:49:25;;;;;;;15.00;9.88;;;;;;;;;;5102645;27;20540;-63
2024/01/29 11:51:53;;;;;;;15.57;9.55;;;;;;;;;;5100865;27;20052;-62
2024/01/29 11:54:23;;;;;;;14.32;9.23;;;;;;;;;;5115312;27;20054;-63
2024/01/29 11:56:50;;;;;;;12.82;9.07;;;;;;;;;;5098857;27;20521;-63
2024/01/29 11:59:16;;;;;;;12.90;10.07;;;;;;;;;;5095150;27;20562;-63
2024/01/29 12:01:43;;;;;;;15.65;9.75;;;;;;;;;;5102173;27;20493;-62
2024/01/29 12:04:11;;;;;;;13.70;10.23;;;;;;;;;;5114308;27;20075;-62
2024/01/29 12:06:38;;;;;;;13.80;9.95;;;;;;;;;;5106499;27;20054;-63
2024/01/29 12:09:10;;;;;;;15.00;9.68;;;;;;;;;;5094986;27;20045;-63
2024/01/29 12:11:37;;;;;;;14.07;9.80;;;;;;;;;;5087575;28;20145;-63
2024/01/29 12:14:04;;;;;;;16.42;10.18;;;;;;;;;;5102820;27;20082;-63
2024/01/29 12:16:31;;;;;;;14.15;10.15;;;;;;;;;;5102266;27;20058;-64
2024/01/29 12:18:59;;;;;;;15.02;9.40;;;;;;;;;;5102519;27;20075;-63
2024/01/29 12:21:26;;;;;;;14.95;9.73;;;;;;;;;;5102566;27;20063;-63
2024/01/29 12:23:53;;;;;;;14.45;10.43;;;;;;;;;;5101747;27;20403;-63
2024/01/29 12:26:29;;;;;;;12.98;9.48;;;;;;;;;;5091974;27;20060;-64
2024/01/29 12:28:58;;;;;;;16.05;10.10;;;;;;;;;;5093736;27;20048;-63
2024/01/29 12:31:25;;;;;;;12.65;9.15;;;;;;;;;;5094069;28;20048;-63
2024/01/29 12:33:52;;;;;;;13.80;8.98;;;;;;;;;;5097620;27;20060;-63
2024/01/29 12:36:19;;;;;;;13.38;9.65;;;;;;;;;;5082856;28;20052;-63
2024/01/29 12:38:58;;;;;;;13.80;8.88;;;;;;;;;;5100272;27;20055;-63
2024/01/29 12:41:31;;;;;;;15.25;8.82;;;;;;;;;;5090160;27;20063;-62
2024/01/29 12:44:07;;;;;;;15.70;9.20;;;;;;;;;;5103751;27;20148;-63
2024/01/29 12:46:34;;;;;;;15.32;9.75;;;;;;;;;;5117457;27;20059;-63
2024/01/29 12:49:01;;;;;;;12.40;9.63;;;;;;;;;;5098953;27;20083;-63
2024/01/29 12:51:28;;;;;;;13.95;9.15;;;;;;;;;;5101156;27;20048;-62
2024/01/29 12:53:55;;;;;;;14.55;9.63;;;;;;;;;;5101079;27;20929;-62
2024/01/29 12:56:25;;;;;;;14.90;9.13;;;;;;;;;;5101880;27;20052;-62
2024/01/29 12:58:52;;;;;;;13.90;8.98;;;;;;;;;;5101510;27;20541;-62
2024/01/29 13:01:18;;;;;;;12.25;9.13;;;;;;;;;;5087585;27;20082;-62
2024/01/29 13:03:45;;;;;;;13.95;9.07;;;;;;;;;;5100956;27;20503;-63
2024/01/29 13:06:11;;;;;;;17.77;9.82;;;;;;;;;;5102044;27;20044;-62
2024/01/29 13:08:38;;;;;;;17.40;9.85;;;;;;;;;;5101871;27;20056;-60
2024/01/29 13:11:05;;;;;;;16.75;9.32;;;;;;;;;;5102269;27;20052;-63
2024/01/29 13:13:31;;;;;;;15.25;8.95;;;;;;;;;;5098783;27;20438;-62
2024/01/29 13:15:58;;;;;;;12.23;8.95;;;;;;;;;;5097119;27;20052;-63
2024/01/29 13:18:25;;;;;;;11.48;8.38;;;;;;;;;;5088581;27;20056;-62
2024/01/29 13:20:52;;;;;;;11.15;8.55;;;;;;;;;;5081926;28;20110;-63
2024/01/29 13:23:19;;;;;;;11.82;8.95;;;;;;;;;;5101861;28;20058;-63
2024/01/29 13:25:47;;;;;;;12.20;8.85;;;;;;;;;;5103732;27;20059;-61
2024/01/29 13:28:13;;;;;;;10.98;8.55;;;;;;;;;;5093652;27;20129;-61
2024/01/29 13:30:40;;;;;;;16.00;9.00;;;;;;;;;;5101472;27;20501;-63
2024/01/29 13:33:07;;;;;;;14.65;9.10;;;;;;;;;;5101922;27;20078;-62
2024/01/29 13:35:33;;;;;;;15.07;8.50;;;;;;;;;;5098115;27;20052;-62
2024/01/29 13:37:59;;;;;;;13.70;8.63;;;;;;;;;;5095853;27;20566;-61
2024/01/29 13:40:26;;;;;;;12.73;8.50;;;;;;;;;;5116149;27;20059;-62
2024/01/29 13:42:54;;;;;;;11.85;7.63;;;;;;;;;;5105331;27;20052;-62
2024/01/29 13:45:21;;;;;;;12.10;8.40;;;;;;;;;;5100546;27;20052;-63
2024/01/29 13:47:49;;;;;;;16.70;8.45;;;;;;;;;;5097657;27;20555;-63
2024/01/29 13:50:16;;;;;;;12.52;8.63;;;;;;;;;;5096958;27;20055;-63
2024/01/29 13:52:42;;;;;;;12.68;8.35;;;;;;;;;;5092547;28;20053;-60
2024/01/29 13:55:09;;;;;;;14.25;8.90;;;;;;;;;;5100155;27;20505;-63
2024/01/29 13:57:36;;;;;;;12.18;8.88;;;;;;;;;;5103437;27;20084;-62
2024/01/29 14:00:04;;;;;;;13.73;8.85;;;;;;;;;;5104206;27;20060;-62
2024/01/29 14:02:34;;;;;;;13.52;9.43;;;;;;;;;;5104454;27;20044;-62
2024/01/29 14:05:03;;;;;;;13.85;9.65;;;;;;;;;;5110757;27;20055;-62
2024/01/29 14:07:30;;;;;;;14.98;9.55;;;;;;;;;;5101016;27;20056;-62
2024/01/29 14:09:57;;;;;;;18.27;10.30;;;;;;;;;;5104648;27;21040;-63
2024/01/29 14:12:23;;;;;;;12.40;9.13;;;;;;;;;;5119644;27;20056;-61
2024/01/29 14:14:49;;;;;;;14.65;9.65;;;;;;;;;;5110721;27;20486;-62
2024/01/29 14:17:16;;;;;;;15.23;10.35;;;;;;;;;;5103921;27;20070;-62
2024/01/29 14:19:43;;;;;;;17.38;11.20;;;;;;;;;;5110349;27;20134;-61
2024/01/29 14:22:10;;;;;;;15.75;9.98;;;;;;;;;;5096067;27;20369;-61
2024/01/29 14:24:37;;;;;;;15.68;10.07;;;;;;;;;;5099545;27;20051;-62
2024/01/29 14:27:03;;;;;;;14.40;9.32;;;;;;;;;;5100943;27;20059;-63
2024/01/29 14:29:30;;;;;;;13.70;9.05;;;;;;;;;;5104214;27;20063;-63
2024/01/29 14:31:56;;;;;;;15.32;9.82;;;;;;;;;;5100743;27;20052;-62